createdAt,value
2023-04-26T00:00:15.829Z,8.87
2023-04-26T00:01:15.827Z,8.88
2023-04-26T00:02:15.981Z,8.95
2023-04-26T00:03:16.082Z,9.04
2023-04-26T00:04:16.133Z,9.06
2023-04-26T00:05:16.166Z,9.08
2023-04-26T00:06:16.017Z,9.17
2023-04-26T00:07:16.049Z,9.10
2023-04-26T00:08:16.012Z,9.10
2023-04-26T00:09:16.028Z,9.05
2023-04-26T00:10:16.048Z,9.02
2023-04-26T00:11:16.123Z,9.02
2023-04-26T00:12:16.130Z,8.86
2023-04-26T00:13:16.768Z,8.70
2023-04-26T00:14:16.129Z,8.74
2023-04-26T00:15:16.131Z,8.72
2023-04-26T00:16:16.188Z,8.83
2023-04-26T00:17:16.193Z,8.79
2023-04-26T00:18:16.312Z,8.88
2023-04-26T00:19:16.265Z,8.96
2023-04-26T00:20:16.301Z,8.89
2023-04-26T00:21:16.277Z,8.91
2023-04-26T00:22:16.283Z,8.95
2023-04-26T00:23:16.282Z,9.04
2023-04-26T00:24:16.416Z,9.04
2023-04-26T00:25:16.392Z,9.00
2023-04-26T00:26:16.453Z,9.13
2023-04-26T00:27:16.460Z,9.18
2023-04-26T00:28:16.516Z,9.19
2023-04-26T00:29:17.271Z,9.18
2023-04-26T00:30:16.634Z,9.26
2023-04-26T00:31:16.688Z,9.28
2023-04-26T00:32:16.708Z,9.37
2023-04-26T00:33:16.783Z,9.46
2023-04-26T00:34:16.807Z,9.36
2023-04-26T00:35:16.840Z,9.40
2023-04-26T00:36:16.894Z,9.44
2023-04-26T00:37:16.917Z,9.47
2023-04-26T00:38:16.902Z,9.54
2023-04-26T00:39:17.259Z,9.64
2023-04-26T00:40:17.026Z,9.68
2023-04-26T00:41:17.100Z,9.73
2023-04-26T00:42:17.170Z,9.73
2023-04-26T00:43:17.203Z,9.71
2023-04-26T00:44:17.187Z,9.66
2023-04-26T00:45:17.193Z,9.55
2023-04-26T00:46:17.520Z,9.60
2023-04-26T00:47:17.305Z,9.55
2023-04-26T00:48:17.327Z,9.50
2023-04-26T00:49:17.337Z,9.42
2023-04-26T00:50:17.350Z,9.57
2023-04-26T00:51:17.376Z,9.55
2023-04-26T00:52:17.387Z,9.61
2023-04-26T00:53:17.458Z,9.70
2023-04-26T00:54:17.539Z,9.73
2023-04-26T00:55:17.617Z,9.69
2023-04-26T00:56:17.563Z,9.68
2023-04-26T00:57:17.595Z,9.63
2023-04-26T00:58:17.600Z,9.57
2023-04-26T00:59:17.673Z,9.55
2023-04-26T01:00:17.737Z,9.66
2023-04-26T01:01:17.729Z,9.73
2023-04-26T01:02:17.779Z,9.72
2023-04-26T01:03:17.830Z,9.61
2023-04-26T01:04:18.086Z,9.38
2023-04-26T01:05:17.749Z,9.28
2023-04-26T01:06:17.837Z,9.42
2023-04-26T01:07:17.830Z,9.47
2023-04-26T01:08:17.848Z,9.53
2023-04-26T01:09:17.924Z,9.63
2023-04-26T01:10:17.927Z,9.67
2023-04-26T01:11:18.004Z,9.65
2023-04-26T01:12:18.024Z,9.57
2023-04-26T01:13:18.099Z,9.61
2023-04-26T01:14:18.165Z,9.53
2023-04-26T01:15:18.180Z,9.63
2023-04-26T01:16:18.238Z,9.58
2023-04-26T01:17:18.226Z,9.50
2023-04-26T01:18:18.285Z,9.22
2023-04-26T01:19:18.315Z,8.99
2023-04-26T01:20:18.280Z,8.71
2023-04-26T01:21:18.285Z,8.61
2023-04-26T01:22:18.355Z,8.57
2023-04-26T01:23:18.433Z,8.55
2023-04-26T01:24:18.472Z,8.48
2023-04-26T01:25:18.535Z,8.43
2023-04-26T01:26:18.588Z,8.30
2023-04-26T01:27:18.562Z,8.40
2023-04-26T01:28:18.641Z,8.51
2023-04-26T01:29:18.742Z,8.63
2023-04-26T01:30:18.711Z,8.79
2023-04-26T01:31:18.778Z,8.98
2023-04-26T01:32:19.733Z,9.05
2023-04-26T01:33:18.814Z,9.17
2023-04-26T01:34:18.844Z,9.20
2023-04-26T01:35:18.815Z,9.01
2023-04-26T01:36:18.827Z,9.02
2023-04-26T01:37:18.854Z,8.99
2023-04-26T01:38:18.853Z,8.93
2023-04-26T01:39:18.929Z,8.94
2023-04-26T01:40:19.060Z,8.94
2023-04-26T01:41:18.962Z,9.02
2023-04-26T01:42:18.960Z,8.94
2023-04-26T01:43:18.959Z,8.98
2023-04-26T01:44:19.036Z,8.94
2023-04-26T01:45:19.096Z,8.91
2023-04-26T01:46:19.103Z,8.96
2023-04-26T01:47:19.035Z,9.04
2023-04-26T01:48:19.105Z,8.98
2023-04-26T01:49:19.183Z,9.01
2023-04-26T01:50:19.192Z,9.00
2023-04-26T01:51:19.160Z,9.02
2023-04-26T01:52:19.179Z,9.01
2023-04-26T01:53:19.184Z,8.93
2023-04-26T01:54:19.216Z,8.92
2023-04-26T01:55:19.243Z,8.99
2023-04-26T01:56:19.260Z,8.96
2023-04-26T01:57:19.268Z,9.01
2023-04-26T01:58:19.238Z,9.07
2023-04-26T01:59:19.372Z,9.20
2023-04-26T02:00:19.334Z,9.09
2023-04-26T02:01:19.375Z,9.02
2023-04-26T02:02:19.406Z,8.91
2023-04-26T02:03:19.485Z,8.75
2023-04-26T02:04:19.408Z,8.67
2023-04-26T02:05:19.592Z,8.69
2023-04-26T02:06:19.473Z,8.65
2023-04-26T02:07:19.514Z,8.62
2023-04-26T02:08:19.535Z,8.57
2023-04-26T02:09:19.559Z,8.48
2023-04-26T02:10:19.622Z,8.40
2023-04-26T02:11:19.690Z,8.42
2023-04-26T02:12:19.703Z,8.52
2023-04-26T02:13:19.767Z,8.63
2023-04-26T02:14:19.892Z,8.71
2023-04-26T02:15:19.891Z,8.71
2023-04-26T02:16:19.916Z,8.73
2023-04-26T02:17:19.892Z,8.77
2023-04-26T02:18:20.000Z,8.81
2023-04-26T02:19:20.254Z,8.88
2023-04-26T02:20:20.017Z,8.73
2023-04-26T02:21:20.028Z,8.81
2023-04-26T02:22:20.072Z,8.87
2023-04-26T02:23:20.125Z,8.91
2023-04-26T02:24:20.074Z,8.96
2023-04-26T02:25:20.152Z,8.98
2023-04-26T02:26:20.162Z,8.88
2023-04-26T02:27:20.182Z,8.89
2023-04-26T02:28:20.223Z,8.93
2023-04-26T02:29:29.393Z,8.85
2023-04-26T02:30:21.316Z,8.71
2023-04-26T02:31:22.747Z,8.75
2023-04-26T02:32:20.274Z,8.82
2023-04-26T02:33:20.237Z,8.92
2023-04-26T02:34:20.257Z,8.72
2023-04-26T02:35:20.270Z,8.81
2023-04-26T02:36:20.213Z,8.93
2023-04-26T02:37:20.243Z,8.97
2023-04-26T02:38:20.236Z,8.98
2023-04-26T02:39:20.221Z,9.00
2023-04-26T02:40:20.255Z,9.05
2023-04-26T02:41:20.237Z,9.08
2023-04-26T02:42:20.204Z,9.16
2023-04-26T02:43:20.184Z,9.08
2023-04-26T02:44:20.262Z,9.09
2023-04-26T02:45:20.214Z,9.08
2023-04-26T02:46:20.203Z,8.98
2023-04-26T02:47:20.191Z,8.89
2023-04-26T02:48:20.155Z,8.96
2023-04-26T02:49:20.181Z,9.11
2023-04-26T02:50:20.212Z,9.17
2023-04-26T02:51:20.170Z,9.16
2023-04-26T02:52:20.134Z,9.14
2023-04-26T02:53:20.149Z,9.03
2023-04-26T02:54:20.133Z,8.94
2023-04-26T02:55:20.129Z,8.96
2023-04-26T02:56:20.103Z,8.93
2023-04-26T02:57:20.096Z,9.06
2023-04-26T02:58:20.096Z,8.99
2023-04-26T02:59:20.099Z,8.92
2023-04-26T03:00:20.102Z,8.96
2023-04-26T03:01:20.067Z,8.74
2023-04-26T03:02:20.129Z,8.65
2023-04-26T03:03:20.430Z,8.63
2023-04-26T03:04:20.155Z,8.62
2023-04-26T03:05:20.289Z,8.66
2023-04-26T03:06:20.035Z,8.72
2023-04-26T03:07:20.068Z,8.57
2023-04-26T03:08:20.018Z,8.63
2023-04-26T03:09:20.278Z,8.60
2023-04-26T03:10:20.003Z,8.61
2023-04-26T03:11:20.010Z,8.50
2023-04-26T03:12:19.990Z,8.64
2023-04-26T03:13:20.027Z,8.72
2023-04-26T03:14:20.028Z,8.77
2023-04-26T03:15:19.998Z,8.77
2023-04-26T03:16:20.002Z,8.78
2023-04-26T03:17:19.973Z,8.64
2023-04-26T03:18:19.982Z,8.57
2023-04-26T03:19:20.030Z,8.48
2023-04-26T03:20:19.936Z,8.45
2023-04-26T03:21:19.924Z,8.48
2023-04-26T03:22:19.925Z,8.42
2023-04-26T03:23:19.907Z,8.32
2023-04-26T03:24:19.915Z,8.36
2023-04-26T03:25:19.930Z,8.35
2023-04-26T03:26:19.920Z,8.38
2023-04-26T03:27:19.863Z,8.47
2023-04-26T03:28:19.934Z,8.57
2023-04-26T03:29:19.903Z,8.51
2023-04-26T03:30:19.862Z,8.45
2023-04-26T03:31:19.922Z,8.42
2023-04-26T03:32:19.958Z,8.63
2023-04-26T03:33:20.030Z,8.80
2023-04-26T03:34:19.993Z,8.90
2023-04-26T03:35:19.977Z,9.03
2023-04-26T03:36:20.034Z,9.13
2023-04-26T03:37:20.144Z,9.17
2023-04-26T03:38:20.206Z,9.08
2023-04-26T03:39:20.237Z,9.02
2023-04-26T03:40:20.315Z,8.91
2023-04-26T03:41:20.383Z,8.78
2023-04-26T03:42:20.347Z,8.85
2023-04-26T03:43:20.362Z,8.90
2023-04-26T03:44:20.411Z,8.97
2023-04-26T03:45:20.453Z,9.00
2023-04-26T03:46:20.471Z,9.09
2023-04-26T03:47:20.536Z,8.94
2023-04-26T03:48:20.514Z,8.96
2023-04-26T03:49:20.584Z,9.02
2023-04-26T03:50:20.620Z,9.10
2023-04-26T03:51:20.633Z,9.05
2023-04-26T03:52:20.679Z,8.91
2023-04-26T03:53:20.744Z,8.92
2023-04-26T03:54:20.773Z,9.02
2023-04-26T03:55:20.783Z,8.99
2023-04-26T03:56:20.839Z,9.01
2023-04-26T03:57:20.821Z,8.93
2023-04-26T03:58:20.808Z,8.84
2023-04-26T03:59:21.267Z,8.95
2023-04-26T04:00:20.883Z,9.03
2023-04-26T04:01:20.893Z,9.11
2023-04-26T04:02:20.937Z,9.23
2023-04-26T04:03:21.172Z,9.34
2023-04-26T04:04:21.181Z,9.43
2023-04-26T04:05:21.835Z,9.46
2023-04-26T04:06:20.966Z,9.50
2023-04-26T04:07:21.017Z,9.49
2023-04-26T04:08:20.957Z,9.57
2023-04-26T04:09:21.018Z,9.59
2023-04-26T04:10:21.276Z,9.58
2023-04-26T04:11:21.075Z,9.62
2023-04-26T04:12:21.118Z,9.67
2023-04-26T04:13:21.111Z,9.65
2023-04-26T04:14:21.185Z,9.62
2023-04-26T04:15:21.161Z,9.59
2023-04-26T04:16:21.315Z,9.63
2023-04-26T04:17:21.211Z,9.62
2023-04-26T04:18:21.269Z,9.65
2023-04-26T04:19:21.376Z,9.72
2023-04-26T04:20:21.478Z,9.69
2023-04-26T04:21:21.502Z,9.72
2023-04-26T04:22:21.570Z,9.75
2023-04-26T04:23:21.599Z,9.64
2023-04-26T04:24:21.624Z,9.57
2023-04-26T04:25:21.664Z,9.40
2023-04-26T04:26:21.673Z,9.33
2023-04-26T04:27:21.683Z,9.29
2023-04-26T04:28:21.708Z,9.33
2023-04-26T04:29:21.769Z,9.41
2023-04-26T04:30:21.817Z,9.35
2023-04-26T04:31:21.862Z,9.35
2023-04-26T04:32:21.825Z,9.34
2023-04-26T04:33:21.896Z,9.34
2023-04-26T04:34:21.959Z,9.24
2023-04-26T04:35:22.339Z,9.20
2023-04-26T04:36:22.127Z,9.20
2023-04-26T04:37:22.030Z,9.34
2023-04-26T04:38:22.064Z,9.49
2023-04-26T04:39:22.086Z,9.57
2023-04-26T04:40:22.167Z,9.61
2023-04-26T04:41:22.197Z,9.72
2023-04-26T04:42:22.249Z,9.78
2023-04-26T04:43:22.264Z,9.79
2023-04-26T04:44:22.364Z,9.85
2023-04-26T04:45:22.452Z,9.91
2023-04-26T04:46:22.458Z,9.98
2023-04-26T04:47:22.543Z,10.08
2023-04-26T04:48:22.565Z,10.14
2023-04-26T04:49:22.577Z,10.21
2023-04-26T04:50:22.570Z,10.22
2023-04-26T04:51:22.560Z,10.19
2023-04-26T04:52:22.582Z,10.16
2023-04-26T04:53:22.589Z,10.11
2023-04-26T04:54:22.660Z,10.00
2023-04-26T04:55:22.693Z,10.08
2023-04-26T04:56:22.732Z,9.98
2023-04-26T04:57:22.771Z,9.86
2023-04-26T04:58:22.737Z,9.81
2023-04-26T04:59:22.794Z,9.60
2023-04-26T05:00:22.770Z,9.58
2023-04-26T05:01:22.800Z,9.60
2023-04-26T05:02:22.926Z,9.56
2023-04-26T05:03:23.025Z,9.62
2023-04-26T05:04:23.150Z,9.56
2023-04-26T05:05:23.329Z,9.64
2023-04-26T05:06:22.988Z,9.70
2023-04-26T05:07:24.531Z,9.80
2023-04-26T05:08:23.085Z,9.83
2023-04-26T05:09:23.155Z,9.95
2023-04-26T05:10:23.215Z,9.99
2023-04-26T05:11:23.194Z,10.06
2023-04-26T05:12:23.269Z,10.16
2023-04-26T05:13:23.336Z,10.15
2023-04-26T05:14:23.300Z,10.20
2023-04-26T05:15:23.376Z,10.20
2023-04-26T05:16:23.412Z,10.26
2023-04-26T05:17:23.429Z,10.28
2023-04-26T05:18:23.501Z,10.35
2023-04-26T05:19:23.492Z,10.39
2023-04-26T05:20:23.519Z,10.39
2023-04-26T05:21:23.528Z,10.34
2023-04-26T05:22:23.567Z,10.27
2023-04-26T05:23:23.566Z,10.30
2023-04-26T05:24:23.632Z,10.35
2023-04-26T05:25:23.662Z,10.38
2023-04-26T05:26:24.341Z,10.35
2023-04-26T05:27:23.803Z,10.24
2023-04-26T05:28:23.749Z,10.23
2023-04-26T05:29:23.799Z,10.28
2023-04-26T05:30:24.420Z,10.34
2023-04-26T05:31:24.050Z,10.21
2023-04-26T05:32:24.062Z,10.33
2023-04-26T05:33:24.058Z,10.42
2023-04-26T05:34:23.928Z,10.51
2023-04-26T05:35:24.301Z,10.52
2023-04-26T05:36:24.028Z,10.61
2023-04-26T05:37:25.009Z,10.63
2023-04-26T05:38:24.054Z,10.74
2023-04-26T05:39:24.015Z,10.75
2023-04-26T05:40:24.953Z,10.77
2023-04-26T05:41:24.265Z,10.84
2023-04-26T05:42:24.135Z,10.91
2023-04-26T05:43:24.199Z,11.01
2023-04-26T05:44:24.235Z,11.09
2023-04-26T05:45:24.817Z,11.04
2023-04-26T05:46:24.266Z,10.95
2023-04-26T05:47:24.175Z,11.00
2023-04-26T05:48:24.194Z,11.07
2023-04-26T05:49:24.289Z,11.14
2023-04-26T05:50:24.920Z,11.21
2023-04-26T05:51:24.352Z,11.22
2023-04-26T05:52:24.413Z,11.23
2023-04-26T05:53:24.423Z,11.30
2023-04-26T05:54:24.398Z,11.33
2023-04-26T05:55:24.465Z,11.31
2023-04-26T05:56:24.487Z,11.34
2023-04-26T05:57:24.473Z,11.46
2023-04-26T05:58:24.530Z,11.52
2023-04-26T05:59:24.534Z,11.58
2023-04-26T06:00:24.606Z,11.61
2023-04-26T06:01:24.684Z,11.66
2023-04-26T06:02:24.837Z,11.70
2023-04-26T06:03:25.069Z,11.82
2023-04-26T06:04:26.149Z,11.71
2023-04-26T06:05:25.093Z,11.78
2023-04-26T06:06:24.968Z,11.81
2023-04-26T06:07:24.966Z,11.90
2023-04-26T06:08:24.969Z,11.92
2023-04-26T06:09:25.214Z,12.02
2023-04-26T06:10:25.428Z,12.01
2023-04-26T06:11:25.030Z,12.04
2023-04-26T06:12:25.037Z,12.01
2023-04-26T06:13:25.107Z,11.99
2023-04-26T06:14:30.553Z,12.01
2023-04-26T06:15:26.460Z,12.10
2023-04-26T06:16:25.219Z,12.03
2023-04-26T06:17:25.099Z,12.08
2023-04-26T06:18:25.820Z,12.19
2023-04-26T06:19:25.179Z,12.15
2023-04-26T06:20:25.082Z,12.18
2023-04-26T06:21:25.046Z,12.22
2023-04-26T06:22:25.102Z,12.28
2023-04-26T06:23:25.075Z,12.35
2023-04-26T06:24:25.049Z,12.30
2023-04-26T06:25:25.330Z,12.36
2023-04-26T06:26:25.086Z,12.45
2023-04-26T06:27:25.034Z,12.44
2023-04-26T06:28:25.134Z,12.45
2023-04-26T06:29:24.999Z,12.51
2023-04-26T06:30:25.331Z,12.55
2023-04-26T06:31:25.025Z,12.64
2023-04-26T06:32:24.985Z,12.70
2023-04-26T06:33:24.964Z,12.70
2023-04-26T06:34:25.025Z,12.70
2023-04-26T06:35:25.104Z,12.73
2023-04-26T06:36:25.105Z,12.73
2023-04-26T06:37:25.232Z,12.65
2023-04-26T06:38:25.109Z,12.61
2023-04-26T06:39:25.188Z,12.63
2023-04-26T06:40:25.267Z,12.70
2023-04-26T06:41:25.814Z,12.71
2023-04-26T06:42:25.331Z,12.78
2023-04-26T06:43:25.470Z,12.82
2023-04-26T06:44:25.363Z,12.86
2023-04-26T06:45:25.410Z,12.91
2023-04-26T06:46:28.455Z,12.98
2023-04-26T06:47:25.442Z,12.94
2023-04-26T06:48:25.400Z,12.94
2023-04-26T06:49:25.580Z,13.03
2023-04-26T06:50:25.401Z,13.23
2023-04-26T06:51:25.410Z,13.36
2023-04-26T06:52:25.460Z,13.30
2023-04-26T06:53:25.404Z,13.23
2023-04-26T06:54:25.413Z,13.18
2023-04-26T06:55:25.888Z,13.15
2023-04-26T06:56:25.432Z,13.11
2023-04-26T06:57:25.387Z,13.16
2023-04-26T06:58:25.401Z,13.14
2023-04-26T06:59:25.358Z,13.20
2023-04-26T07:00:25.982Z,13.32
2023-04-26T07:01:25.434Z,13.49
2023-04-26T07:02:25.600Z,13.50
2023-04-26T07:03:25.446Z,13.62
2023-04-26T07:04:25.469Z,13.69
2023-04-26T07:05:25.396Z,13.76
2023-04-26T07:06:25.312Z,13.88
2023-04-26T07:07:25.356Z,13.91
2023-04-26T07:08:25.325Z,13.91
2023-04-26T07:09:25.287Z,13.93
2023-04-26T07:10:25.322Z,13.84
2023-04-26T07:11:26.343Z,13.73
2023-04-26T07:12:25.309Z,13.75
2023-04-26T07:13:25.271Z,13.73
2023-04-26T07:14:25.245Z,13.53
2023-04-26T07:15:25.249Z,13.40
2023-04-26T07:16:25.284Z,13.44
2023-04-26T07:17:25.250Z,13.53
2023-04-26T07:18:25.258Z,13.68
2023-04-26T07:19:25.221Z,13.56
2023-04-26T07:20:26.884Z,13.50
2023-04-26T07:21:25.209Z,13.65
2023-04-26T07:22:25.192Z,13.65
2023-04-26T07:23:25.245Z,13.86
2023-04-26T07:24:25.229Z,13.99
2023-04-26T07:25:25.181Z,14.14
2023-04-26T07:26:25.168Z,14.20
2023-04-26T07:27:25.179Z,14.27
2023-04-26T07:28:25.195Z,14.31
2023-04-26T07:29:25.166Z,14.33
2023-04-26T07:30:25.477Z,14.37
2023-04-26T07:31:25.151Z,14.43
2023-04-26T07:32:27.895Z,14.40
2023-04-26T07:33:27.944Z,14.43
2023-04-26T07:34:25.897Z,14.51
2023-04-26T07:35:25.881Z,14.60
2023-04-26T07:36:25.257Z,14.74
2023-04-26T07:37:25.144Z,14.83
2023-04-26T07:38:25.167Z,14.86
2023-04-26T07:39:25.090Z,14.82
2023-04-26T07:40:25.119Z,14.91
2023-04-26T07:41:25.182Z,15.01
2023-04-26T07:42:25.156Z,15.13
2023-04-26T07:43:25.059Z,15.20
2023-04-26T07:44:25.219Z,15.23
2023-04-26T07:45:25.081Z,15.11
2023-04-26T07:46:26.010Z,15.04
2023-04-26T07:47:25.070Z,14.97
2023-04-26T07:48:25.071Z,14.72
2023-04-26T07:49:25.026Z,14.70
2023-04-26T07:50:25.039Z,14.83
2023-04-26T07:51:24.997Z,14.88
2023-04-26T07:52:24.974Z,14.94
2023-04-26T07:53:25.000Z,15.07
2023-04-26T07:54:24.970Z,15.20
2023-04-26T07:55:25.088Z,15.25
2023-04-26T07:56:24.953Z,15.25
2023-04-26T07:57:25.091Z,15.27
2023-04-26T07:58:25.034Z,15.24
2023-04-26T07:59:25.016Z,15.26
2023-04-26T08:00:25.836Z,15.30
2023-04-26T08:01:25.285Z,15.28
2023-04-26T08:02:36.794Z,15.32
2023-04-26T08:03:26.176Z,15.36
2023-04-26T08:04:25.129Z,15.48
2023-04-26T08:05:25.341Z,15.58
2023-04-26T08:06:25.060Z,15.70
2023-04-26T08:07:25.069Z,15.50
2023-04-26T08:08:25.885Z,15.32
2023-04-26T08:09:24.887Z,15.19
2023-04-26T08:10:25.889Z,15.29
2023-04-26T08:11:25.996Z,15.40
2023-04-26T08:12:24.890Z,15.51
2023-04-26T08:13:26.979Z,15.59
2023-04-26T08:14:24.954Z,15.69
2023-04-26T08:15:24.860Z,15.46
2023-04-26T08:16:24.885Z,15.37
2023-04-26T08:17:25.019Z,14.96
2023-04-26T08:18:24.845Z,15.13
2023-04-26T08:19:24.879Z,15.28
2023-04-26T08:20:24.835Z,15.47
2023-04-26T08:21:24.802Z,15.56
2023-04-26T08:22:24.828Z,15.77
2023-04-26T08:23:24.787Z,15.82
2023-04-26T08:24:24.813Z,15.87
2023-04-26T08:25:24.784Z,15.91
2023-04-26T08:26:24.773Z,15.93
2023-04-26T08:27:24.794Z,15.97
2023-04-26T08:28:24.779Z,15.98
2023-04-26T08:29:24.746Z,15.96
2023-04-26T08:30:25.013Z,16.06
2023-04-26T08:31:24.751Z,16.19
2023-04-26T08:32:24.764Z,16.34
2023-04-26T08:33:24.701Z,16.34
2023-04-26T08:34:24.733Z,16.46
2023-04-26T08:35:24.680Z,16.55
2023-04-26T08:36:24.729Z,16.60
2023-04-26T08:37:24.696Z,16.35
2023-04-26T08:38:24.746Z,16.42
2023-04-26T08:39:24.717Z,16.56
2023-04-26T08:40:24.809Z,16.65
2023-04-26T08:41:26.413Z,16.71
2023-04-26T08:42:24.638Z,16.75
2023-04-26T08:43:24.661Z,16.75
2023-04-26T08:44:25.352Z,16.79
2023-04-26T08:45:24.848Z,16.85
2023-04-26T08:46:24.690Z,16.93
2023-04-26T08:47:24.689Z,17.04
2023-04-26T08:48:24.633Z,17.00
2023-04-26T08:49:25.452Z,16.96
2023-04-26T08:50:25.440Z,17.04
2023-04-26T08:51:24.643Z,17.07
2023-04-26T08:52:25.442Z,16.68
2023-04-26T08:53:25.359Z,16.67
2023-04-26T08:54:24.564Z,16.68
2023-04-26T08:55:24.605Z,16.79
2023-04-26T08:56:24.546Z,16.96
2023-04-26T08:57:24.559Z,17.08
2023-04-26T08:58:24.578Z,17.10
2023-04-26T08:59:24.780Z,17.04
2023-04-26T09:00:27.901Z,16.97
2023-04-26T09:01:24.666Z,16.78
2023-04-26T09:02:24.808Z,16.53
2023-04-26T09:03:25.542Z,16.60
2023-04-26T09:04:25.596Z,16.77
2023-04-26T09:05:25.378Z,16.78
2023-04-26T09:06:24.574Z,16.32
2023-04-26T09:07:24.797Z,16.32
2023-04-26T09:08:25.334Z,16.22
2023-04-26T09:09:24.603Z,16.26
2023-04-26T09:10:24.658Z,16.32
2023-04-26T09:11:24.930Z,16.60
2023-04-26T09:12:25.352Z,16.86
2023-04-26T09:13:24.554Z,17.03
2023-04-26T09:14:25.238Z,17.17
2023-04-26T09:15:24.610Z,17.28
2023-04-26T09:16:24.707Z,17.35
2023-04-26T09:17:24.724Z,17.47
2023-04-26T09:18:24.518Z,17.63
2023-04-26T09:19:24.508Z,17.75
2023-04-26T09:20:24.500Z,17.76
2023-04-26T09:21:24.488Z,17.70
2023-04-26T09:22:24.467Z,17.79
2023-04-26T09:23:24.487Z,17.82
2023-04-26T09:24:24.448Z,17.80
2023-04-26T09:25:24.549Z,17.87
2023-04-26T09:26:24.540Z,17.93
2023-04-26T09:27:24.514Z,18.01
2023-04-26T09:28:24.538Z,18.08
2023-04-26T09:29:24.441Z,18.02
2023-04-26T09:30:24.537Z,18.04
2023-04-26T09:31:25.139Z,18.16
2023-04-26T09:32:25.478Z,18.26
2023-04-26T09:33:24.759Z,18.29
2023-04-26T09:34:24.507Z,18.09
2023-04-26T09:35:24.407Z,18.13
2023-04-26T09:36:24.875Z,18.15
2023-04-26T09:37:24.432Z,18.12
2023-04-26T09:38:24.357Z,18.12
2023-04-26T09:39:25.389Z,17.94
2023-04-26T09:40:24.455Z,18.06
2023-04-26T09:41:25.380Z,18.03
2023-04-26T09:42:24.470Z,18.13
2023-04-26T09:43:24.596Z,18.00
2023-04-26T09:44:24.620Z,17.99
2023-04-26T09:45:24.782Z,18.03
2023-04-26T09:46:25.507Z,18.05
2023-04-26T09:47:24.673Z,18.19
2023-04-26T09:48:24.683Z,18.16
2023-04-26T09:49:24.812Z,18.45
2023-04-26T09:50:24.783Z,18.45
2023-04-26T09:51:25.077Z,18.48
2023-04-26T09:52:25.383Z,18.50
2023-04-26T09:53:24.809Z,18.63
2023-04-26T09:54:25.403Z,18.65
2023-04-26T09:55:34.190Z,18.80
2023-04-26T09:56:25.864Z,18.96
2023-04-26T09:57:25.055Z,18.77
2023-04-26T09:58:24.863Z,18.68
2023-04-26T09:59:24.946Z,18.58
2023-04-26T10:00:25.385Z,18.34
2023-04-26T10:01:24.847Z,18.01
2023-04-26T10:02:24.970Z,17.95
2023-04-26T10:03:24.982Z,17.83
2023-04-26T10:04:24.873Z,17.75
2023-04-26T10:05:24.798Z,17.92
2023-04-26T10:06:24.772Z,18.15
2023-04-26T10:07:25.378Z,18.39
2023-04-26T10:08:24.746Z,18.56
2023-04-26T10:09:24.825Z,18.47
2023-04-26T10:10:24.792Z,18.51
2023-04-26T10:11:24.821Z,18.14
2023-04-26T10:12:24.833Z,18.00
2023-04-26T10:13:24.814Z,18.02
2023-04-26T10:14:24.834Z,17.62
2023-04-26T10:15:24.879Z,17.65
2023-04-26T10:16:24.950Z,17.54
2023-04-26T10:17:24.934Z,17.87
2023-04-26T10:18:24.863Z,18.21
2023-04-26T10:19:24.909Z,18.13
2023-04-26T10:20:24.937Z,18.20
2023-04-26T10:21:25.008Z,18.60
2023-04-26T10:22:25.309Z,18.50
2023-04-26T10:23:25.047Z,18.71
2023-04-26T10:24:25.136Z,18.80
2023-04-26T10:25:25.177Z,19.09
2023-04-26T10:26:25.177Z,19.29
2023-04-26T10:27:25.368Z,19.35
2023-04-26T10:28:25.218Z,19.08
2023-04-26T10:29:25.255Z,19.24
2023-04-26T10:30:25.334Z,19.42
2023-04-26T10:31:25.873Z,19.24
2023-04-26T10:32:25.409Z,19.30
2023-04-26T10:33:25.475Z,19.42
2023-04-26T10:34:25.505Z,19.34
2023-04-26T10:35:25.531Z,19.29
2023-04-26T10:36:25.889Z,19.40
2023-04-26T10:37:25.629Z,18.88
2023-04-26T10:38:25.613Z,19.02
2023-04-26T10:39:25.658Z,19.08
2023-04-26T10:40:25.678Z,19.01
2023-04-26T10:41:25.880Z,19.17
2023-04-26T10:42:26.552Z,19.11
2023-04-26T10:43:26.208Z,19.38
2023-04-26T10:44:25.831Z,19.68
2023-04-26T10:45:25.869Z,19.95
2023-04-26T10:46:25.984Z,20.07
2023-04-26T10:47:25.927Z,20.29
2023-04-26T10:48:25.904Z,20.35
2023-04-26T10:49:26.802Z,20.16
2023-04-26T10:50:25.938Z,19.94
2023-04-26T10:51:25.985Z,19.81
2023-04-26T10:52:25.989Z,20.00
2023-04-26T10:53:26.044Z,19.95
2023-04-26T10:54:26.216Z,19.77
2023-04-26T10:55:26.149Z,19.85
2023-04-26T10:56:26.288Z,19.88
2023-04-26T10:57:26.225Z,20.08
2023-04-26T10:58:26.255Z,20.18
2023-04-26T11:00:27.095Z,20.56
2023-04-26T11:01:26.365Z,20.72
2023-04-26T11:02:26.398Z,20.76
2023-04-26T11:03:26.346Z,20.76
2023-04-26T11:04:26.990Z,20.91
2023-04-26T11:05:26.228Z,20.83
2023-04-26T11:06:26.448Z,20.85
2023-04-26T11:07:26.205Z,20.74
2023-04-26T11:08:26.238Z,20.49
2023-04-26T11:09:26.271Z,20.62
2023-04-26T11:10:26.421Z,20.25
2023-04-26T11:11:26.281Z,19.88
2023-04-26T11:12:26.287Z,19.72
2023-04-26T11:13:26.315Z,19.67
2023-04-26T11:14:26.347Z,19.65
2023-04-26T11:15:26.416Z,19.69
2023-04-26T11:16:26.793Z,19.72
2023-04-26T11:17:26.572Z,19.96
2023-04-26T11:18:26.614Z,20.07
2023-04-26T11:19:26.600Z,19.81
2023-04-26T11:20:26.648Z,19.55
2023-04-26T11:21:27.551Z,19.82
2023-04-26T11:22:26.739Z,20.15
2023-04-26T11:23:26.764Z,20.50
2023-04-26T11:24:27.418Z,20.79
2023-04-26T11:25:26.814Z,21.00
2023-04-26T11:26:26.881Z,21.07
2023-04-26T11:27:26.889Z,20.81
2023-04-26T11:28:26.910Z,20.64
2023-04-26T11:29:26.923Z,20.44
2023-04-26T11:30:26.960Z,20.50
2023-04-26T11:31:27.516Z,20.48
2023-04-26T11:32:27.102Z,19.76
2023-04-26T11:33:27.199Z,19.55
2023-04-26T11:34:27.128Z,19.71
2023-04-26T11:35:27.242Z,19.62
2023-04-26T11:36:27.415Z,19.75
2023-04-26T11:37:27.241Z,19.89
2023-04-26T11:38:27.292Z,20.10
2023-04-26T11:39:27.309Z,20.09
2023-04-26T11:40:27.341Z,20.05
2023-04-26T11:41:27.417Z,20.14
2023-04-26T11:42:27.389Z,19.98
2023-04-26T11:43:27.417Z,19.95
2023-04-26T11:44:27.502Z,20.22
2023-04-26T11:45:27.506Z,20.49
2023-04-26T11:46:27.628Z,20.71
2023-04-26T11:47:27.531Z,20.86
2023-04-26T11:48:27.583Z,20.96
2023-04-26T11:49:27.614Z,21.34
2023-04-26T11:50:27.670Z,21.51
2023-04-26T11:51:27.643Z,21.77
2023-04-26T11:52:27.708Z,21.75
2023-04-26T11:53:27.750Z,21.84
2023-04-26T11:54:27.760Z,21.85
2023-04-26T11:55:27.816Z,21.98
2023-04-26T11:56:27.866Z,22.08
2023-04-26T11:57:27.860Z,22.20
2023-04-26T11:58:27.890Z,22.36
2023-04-26T11:59:27.909Z,22.58
2023-04-26T12:00:27.966Z,22.75
2023-04-26T12:01:28.066Z,22.75
2023-04-26T12:02:28.147Z,22.81
2023-04-26T12:03:28.371Z,22.67
2023-04-26T12:04:29.951Z,22.30
2023-04-26T12:05:28.272Z,22.23
2023-04-26T12:06:28.221Z,22.06
2023-04-26T12:07:28.209Z,21.70
2023-04-26T12:08:28.315Z,21.98
2023-04-26T12:09:28.362Z,21.97
2023-04-26T12:10:28.388Z,22.26
2023-04-26T12:11:28.412Z,22.53
2023-04-26T12:12:28.462Z,22.71
2023-04-26T12:13:28.460Z,22.64
2023-04-26T12:14:28.532Z,22.64
2023-04-26T12:15:28.494Z,22.73
2023-04-26T12:16:28.571Z,22.63
2023-04-26T12:17:28.813Z,22.62
2023-04-26T12:18:28.542Z,22.81
2023-04-26T12:19:28.613Z,22.84
2023-04-26T12:20:28.641Z,22.74
2023-04-26T12:21:30.611Z,22.72
2023-04-26T12:22:28.770Z,22.50
2023-04-26T12:23:28.794Z,22.46
2023-04-26T12:24:28.838Z,22.41
2023-04-26T12:25:28.855Z,22.41
2023-04-26T12:26:28.896Z,22.53
2023-04-26T12:27:28.915Z,22.59
2023-04-26T12:28:29.081Z,22.57
2023-04-26T12:29:29.235Z,22.38
2023-04-26T12:30:29.018Z,22.50
2023-04-26T12:31:29.095Z,22.63
2023-04-26T12:32:29.114Z,22.67
2023-04-26T12:33:29.139Z,22.34
2023-04-26T12:34:30.043Z,22.51
2023-04-26T12:35:29.138Z,22.63
2023-04-26T12:36:29.134Z,22.18
2023-04-26T12:37:29.149Z,21.40
2023-04-26T12:38:29.488Z,20.91
2023-04-26T12:39:29.300Z,21.35
2023-04-26T12:40:29.926Z,21.62
2023-04-26T12:41:29.581Z,22.02
2023-04-26T12:42:29.506Z,22.11
2023-04-26T12:43:29.525Z,22.06
2023-04-26T12:44:29.436Z,22.01
2023-04-26T12:45:29.482Z,22.20
2023-04-26T12:46:29.573Z,22.34
2023-04-26T12:47:29.603Z,22.48
2023-04-26T12:48:29.562Z,22.72
2023-04-26T12:49:29.589Z,22.72
2023-04-26T12:50:29.654Z,22.74
2023-04-26T12:51:29.981Z,22.74
2023-04-26T12:52:29.701Z,22.52
2023-04-26T12:53:29.714Z,22.60
2023-04-26T12:54:30.490Z,22.83
2023-04-26T12:55:32.488Z,22.91
2023-04-26T12:56:29.819Z,22.98
2023-04-26T12:57:29.924Z,22.97
2023-04-26T12:58:29.759Z,23.22
2023-04-26T12:59:29.818Z,23.05
2023-04-26T13:00:29.804Z,23.14
2023-04-26T13:01:29.787Z,23.26
2023-04-26T13:02:29.891Z,23.26
2023-04-26T13:03:29.988Z,23.34